Time;durP1;ratioP1;P1;durP2;ratioP2;P2;SDS_P1;SDS_P2;PMS_P1;PMS_P2;Temp;Humidity;BMP_temperature;BMP_pressure;BME280_temperature;BME280_humidity;BME280_pressure;Samples;Min_cycle;Max_cycle;Signal;HPM_P1;HPM_P2
2022/10/28 00:01:14;;;;;;;18.77;11.80;;;15.60;99.90;;;;;;5043519;28;20339;-81
2022/10/28 00:03:44;;;;;;;21.43;12.10;;;15.50;99.90;;;;;;5049112;28;20202;-80
2022/10/28 00:06:20;;;;;;;21.67;12.03;;;15.70;99.90;;;;;;5034183;28;20251;-81
2022/10/28 00:08:47;;;;;;;21.33;13.43;;;15.50;99.90;;;;;;5029085;28;20217;-82
2022/10/28 00:11:18;;;;;;;21.17;12.83;;;15.40;99.90;;;;;;5049870;28;20681;-80
2022/10/28 00:13:45;;;;;;;24.43;12.83;;;15.10;99.90;;;;;;5027170;28;20201;-82
2022/10/28 00:16:16;;;;;;;22.03;12.23;;;15.30;99.90;;;;;;5033392;28;20242;-81
2022/10/28 00:18:44;;;;;;;22.03;12.83;;;15.30;99.90;;;;;;5027015;28;20296;-81
2022/10/28 00:21:19;;;;;;;20.27;12.10;;;15.20;99.90;;;;;;5031581;28;20648;-81
2022/10/28 00:23:46;;;;;;;25.97;13.73;;;15.10;99.90;;;;;;5045509;28;20286;-81
2022/10/28 00:26:17;;;;;;;21.47;13.30;;;15.10;99.90;;;;;;5046685;28;20251;-81
2022/10/28 00:28:48;;;;;;;27.60;14.87;;;15.00;99.90;;;;;;5043849;28;20210;-82
2022/10/28 00:31:17;;;;;;;28.90;14.23;;;15.00;99.90;;;;;;5044656;28;20656;-81
2022/10/28 00:33:45;;;;;;;23.67;13.53;;;15.50;99.90;;;;;;5024998;28;20209;-81
2022/10/28 00:36:23;;;;;;;30.03;15.03;;;14.90;99.90;;;;;;5041149;28;20214;-82
2022/10/28 00:38:57;;;;;;;21.43;13.97;;;14.90;99.90;;;;;;5051621;28;20276;-81
2022/10/28 00:41:33;;;;;;;24.90;14.07;;;14.80;99.90;;;;;;5044169;28;20348;-81
2022/10/28 00:44:20;;;;;;;26.20;14.33;;;14.80;99.90;;;;;;5054281;28;20229;-81
2022/10/28 00:46:52;;;;;;;24.50;13.73;;;14.70;99.90;;;;;;5041709;28;20207;-81
2022/10/28 00:49:26;;;;;;;31.70;16.47;;;14.70;99.90;;;;;;5063998;28;20214;-82
2022/10/28 00:52:00;;;;;;;24.53;14.70;;;14.70;99.90;;;;;;5044043;28;20212;-82
2022/10/28 00:54:29;;;;;;;28.43;15.00;;;14.40;99.90;;;;;;5060091;28;20342;-84
2022/10/28 00:56:58;;;;;;;28.03;15.37;;;14.60;99.90;;;;;;5036334;28;20235;-81
2022/10/28 00:59:33;;;;;;;26.33;15.60;;;14.60;99.90;;;;;;5041469;28;20197;-82
2022/10/28 01:02:01;;;;;;;32.47;17.10;;;14.50;99.90;;;;;;5032158;28;20308;-81
2022/10/28 01:04:28;;;;;;;28.97;16.53;;;14.50;99.90;;;;;;5056888;28;20212;-81
2022/10/28 01:06:56;;;;;;;31.23;17.10;;;14.50;99.90;;;;;;5034506;28;20288;-83
2022/10/28 01:09:23;;;;;;;34.33;18.07;;;14.50;99.90;;;;;;5047896;28;20267;-82
2022/10/28 01:12:18;;;;;;;31.67;17.83;;;14.50;99.90;;;;;;5047966;28;20216;-81
2022/10/28 01:15:10;;;;;;;32.27;16.90;;;13.60;99.90;;;;;;5044070;28;20320;-83
2022/10/28 01:17:57;;;;;;;32.30;17.97;;;14.50;99.90;;;;;;5040833;28;20564;-82
2022/10/28 01:20:51;;;;;;;28.93;16.67;;;14.50;99.90;;;;;;5029815;28;20588;-82
2022/10/28 01:23:32;;;;;;;28.13;17.03;;;14.40;99.90;;;;;;5047233;28;20213;-82
2022/10/28 01:26:30;;;;;;;28.93;16.87;;;14.40;99.90;;;;;;5044356;28;20280;-83
2022/10/28 01:29:23;;;;;;;37.73;19.83;;;14.40;99.90;;;;;;5013438;28;20236;-82
2022/10/28 01:31:56;;;;;;;41.13;19.63;;;14.40;99.90;;;;;;5000051;28;20288;-81
2022/10/28 01:34:53;;;;;;;42.93;19.90;;;14.40;99.90;;;;;;5042414;28;20228;-80
2022/10/28 01:37:39;;;;;;;29.90;18.63;;;14.40;99.90;;;;;;5034209;28;20209;-81
2022/10/28 01:40:27;;;;;;;37.57;20.07;;;14.40;99.90;;;;;;5029615;28;20247;-81
2022/10/28 01:43:16;;;;;;;32.60;18.80;;;14.30;99.90;;;;;;5051600;28;20203;-82
2022/10/28 01:46:15;;;;;;;39.27;20.30;;;14.30;99.90;;;;;;5051172;28;20551;-81
2022/10/28 01:48:58;;;;;;;34.07;19.40;;;13.30;99.90;;;;;;5049301;28;20212;-82
2022/10/28 01:51:34;;;;;;;34.67;20.13;;;14.30;99.90;;;;;;5051581;28;20280;-80
2022/10/28 01:54:05;;;;;;;38.50;19.93;;;14.30;99.90;;;;;;5029268;28;20213;-80
2022/10/28 01:56:39;;;;;;;39.57;19.30;;;14.30;99.90;;;;;;5032043;28;20197;-82
2022/10/28 01:59:10;;;;;;;35.00;19.47;;;14.70;99.90;;;;;;5046107;28;20233;-82
2022/10/28 02:01:37;;;;;;;36.40;20.80;;;14.60;99.90;;;;;;5049128;28;20730;-81
2022/10/28 02:04:04;;;;;;;38.37;21.00;;;14.30;99.90;;;;;;5051423;28;20248;-82
2022/10/28 02:06:33;;;;;;;41.77;22.13;;;14.30;99.90;;;;;;5028744;28;20263;-83
2022/10/28 02:09:18;;;;;;;41.83;22.60;;;14.30;99.90;;;;;;5047052;28;20653;-82
2022/10/28 02:12:10;;;;;;;51.10;24.93;;;14.20;99.90;;;;;;5046630;28;20565;-82
2022/10/28 02:15:08;;;;;;;44.50;23.47;;;14.30;99.90;;;;;;5027055;28;20266;-82
2022/10/28 02:18:05;;;;;;;39.90;23.60;;;14.30;99.90;;;;;;5024372;28;20220;-81
2022/10/28 02:20:46;;;;;;;40.97;23.03;;;14.20;99.90;;;;;;5026862;28;20257;-81
2022/10/28 02:23:30;;;;;;;48.53;25.93;;;14.20;99.90;;;;;;5031371;28;20725;-81
2022/10/28 02:26:09;;;;;;;47.93;27.07;;;14.30;99.90;;;;;;5033009;28;20658;-82
2022/10/28 02:28:53;;;;;;;44.03;24.67;;;14.30;99.90;;;;;;5030397;28;20256;-81
2022/10/28 02:31:34;;;;;;;46.40;24.57;;;14.30;99.90;;;;;;5025872;28;20205;-82
2022/10/28 02:34:10;;;;;;;44.03;23.17;;;14.30;99.90;;;;;;5033921;28;20271;-80
2022/10/28 02:36:42;;;;;;;50.17;24.33;;;14.20;99.90;;;;;;5029080;28;20617;-81
2022/10/28 02:39:10;;;;;;;46.87;24.70;;;14.30;99.90;;;;;;5015015;28;20591;-81
2022/10/28 02:41:57;;;;;;;46.60;25.00;;;14.30;99.90;;;;;;5004563;28;20300;-81
2022/10/28 02:44:29;;;;;;;39.30;22.43;;;14.20;99.90;;;;;;5028481;28;20677;-80
2022/10/28 02:47:00;;;;;;;40.13;22.60;;;14.00;99.90;;;;;;5010862;28;20198;-81
2022/10/28 02:49:30;;;;;;;40.60;22.20;;;14.20;99.90;;;;;;5028077;28;20222;-82
2022/10/28 02:52:01;;;;;;;44.37;23.27;;;14.10;99.90;;;;;;5026415;28;20252;-82
2022/10/28 02:54:36;;;;;;;38.97;23.03;;;14.10;99.90;;;;;;5028153;28;20202;-81
2022/10/28 02:57:13;;;;;;;43.63;22.83;;;14.60;99.90;;;;;;5024495;28;20207;-82
2022/10/28 02:59:40;;;;;;;44.13;23.40;;;14.10;99.90;;;;;;5027625;28;20258;-81
2022/10/28 03:02:07;;;;;;;52.20;26.20;;;14.30;99.90;;;;;;5028501;28;20973;-81
2022/10/28 03:04:34;;;;;;;44.47;24.67;;;13.80;99.90;;;;;;5014707;28;20214;-81
2022/10/28 03:07:01;;;;;;;50.23;25.50;;;14.10;99.90;;;;;;5039311;28;20641;-81
2022/10/28 03:09:28;;;;;;;51.97;26.70;;;14.10;99.90;;;;;;5032405;28;20198;-80
2022/10/28 03:11:55;;;;;;;46.63;24.67;;;13.80;99.90;;;;;;5023382;28;20527;-80
2022/10/28 03:14:21;;;;;;;54.63;27.30;;;15.00;99.90;;;;;;5015935;28;20253;-80
2022/10/28 03:16:48;;;;;;;43.73;24.47;;;14.10;99.90;;;;;;5025177;28;20208;-82
2022/10/28 03:19:16;;;;;;;50.37;25.17;;;13.70;99.90;;;;;;5033529;28;20220;-81
2022/10/28 03:21:43;;;;;;;49.93;25.40;;;14.50;99.90;;;;;;5025627;28;20306;-82
2022/10/28 03:24:09;;;;;;;51.20;26.10;;;13.40;99.90;;;;;;5036789;28;20244;-83
2022/10/28 03:26:36;;;;;;;53.60;25.57;;;14.10;99.90;;;;;;5026518;28;20266;-83
2022/10/28 03:29:03;;;;;;;50.53;26.23;;;14.10;99.90;;;;;;5025497;28;20209;-83
2022/10/28 03:31:30;;;;;;;41.43;24.40;;;13.90;99.90;;;;;;5044472;28;20216;-82
2022/10/28 03:33:57;;;;;;;46.30;24.30;;;13.80;99.90;;;;;;5046128;28;20217;-80
2022/10/28 03:36:24;;;;;;;44.27;23.83;;;14.20;99.90;;;;;;5043311;28;20213;-80
2022/10/28 03:38:51;;;;;;;44.63;23.20;;;14.10;99.90;;;;;;5042496;28;20311;-81
2022/10/28 03:41:17;;;;;;;44.10;25.13;;;14.20;99.90;;;;;;5051939;28;20256;-80
2022/10/28 03:43:44;;;;;;;46.20;23.50;;;14.20;99.90;;;;;;5029291;28;20376;-80
2022/10/28 03:46:11;;;;;;;44.53;24.47;;;14.20;99.90;;;;;;5044956;28;20205;-79
2022/10/28 03:48:38;;;;;;;39.67;22.60;;;14.10;99.90;;;;;;5048131;28;20202;-82
2022/10/28 03:51:05;;;;;;;43.00;23.50;;;14.10;99.90;;;;;;5031463;28;20576;-82
2022/10/28 03:53:34;;;;;;;45.27;23.47;;;14.20;99.90;;;;;;5028494;28;20678;-81
2022/10/28 03:56:01;;;;;;;47.20;23.43;;;14.80;99.90;;;;;;5033576;28;20211;-81
2022/10/28 03:58:29;;;;;;;46.40;22.37;;;14.20;99.90;;;;;;5027327;28;20194;-80
2022/10/28 04:00:58;;;;;;;42.93;22.50;;;14.10;99.90;;;;;;5044867;28;20628;-80
2022/10/28 04:03:25;;;;;;;43.40;23.17;;;14.10;99.90;;;;;;5044353;28;20300;-81
2022/10/28 04:05:53;;;;;;;41.43;21.70;;;14.20;99.90;;;;;;5026580;28;20252;-81
2022/10/28 04:08:20;;;;;;;42.93;20.67;;;14.10;99.90;;;;;;5027403;28;20205;-81
2022/10/28 04:10:47;;;;;;;41.40;22.13;;;14.70;99.90;;;;;;5045369;28;20233;-79
2022/10/28 04:13:15;;;;;;;37.83;20.03;;;14.10;99.90;;;;;;5047972;28;20257;-81
2022/10/28 04:15:42;;;;;;;36.27;20.30;;;14.20;99.90;;;;;;5046289;28;20233;-82
2022/10/28 04:18:10;;;;;;;37.90;19.57;;;13.40;99.90;;;;;;5023288;28;20209;-81
2022/10/28 04:20:37;;;;;;;36.17;19.83;;;14.20;99.90;;;;;;5030011;28;20299;-82
2022/10/28 04:23:04;;;;;;;38.63;19.10;;;14.20;99.90;;;;;;5043496;28;20256;-82
2022/10/28 04:25:30;;;;;;;39.87;20.10;;;14.20;99.90;;;;;;5044711;28;20329;-81
2022/10/28 04:27:57;;;;;;;37.73;19.83;;;14.20;99.90;;;;;;5048163;28;20647;-81
2022/10/28 04:30:24;;;;;;;37.43;18.73;;;14.20;99.90;;;;;;5046219;28;20205;-81
2022/10/28 04:32:51;;;;;;;30.77;17.63;;;14.20;99.90;;;;;;5045811;28;20327;-81
2022/10/28 04:35:17;;;;;;;30.07;18.10;;;14.20;99.90;;;;;;5050126;28;20696;-82
2022/10/28 04:37:47;;;;;;;31.27;17.13;;;14.30;99.90;;;;;;5049263;28;20732;-82
2022/10/28 04:40:14;;;;;;;34.17;16.77;;;14.20;99.90;;;;;;5046354;28;20205;-82
2022/10/28 04:42:41;;;;;;;28.47;16.87;;;13.70;99.90;;;;;;5044966;28;20320;-81
2022/10/28 04:45:08;;;;;;;28.57;15.83;;;14.20;99.90;;;;;;5047719;28;20283;-81
2022/10/28 04:47:34;;;;;;;35.07;16.67;;;14.20;99.90;;;;;;5023942;28;20213;-81
2022/10/28 04:50:02;;;;;;;34.47;15.97;;;14.60;99.90;;;;;;5039515;28;20224;-82
2022/10/28 04:52:29;;;;;;;29.33;15.57;;;14.30;99.90;;;;;;5048616;28;20233;-83
2022/10/28 04:54:56;;;;;;;30.33;16.57;;;14.20;99.90;;;;;;5048329;28;20738;-82
2022/10/28 04:57:23;;;;;;;33.97;17.40;;;14.20;99.90;;;;;;5045195;28;20333;-82
2022/10/28 04:59:49;;;;;;;32.40;15.50;;;14.20;99.90;;;;;;5032175;28;20276;-81
2022/10/28 05:02:16;;;;;;;29.40;16.23;;;14.30;99.90;;;;;;5041799;28;20235;-81
2022/10/28 05:04:43;;;;;;;28.57;15.97;;;14.20;99.90;;;;;;5042659;28;20731;-81
2022/10/28 05:07:10;;;;;;;28.60;15.20;;;14.20;99.90;;;;;;5039701;28;20589;-82
2022/10/28 05:09:37;;;;;;;29.97;15.70;;;14.20;99.90;;;;;;5044489;28;20287;-82
2022/10/28 05:12:04;;;;;;;31.37;15.97;;;14.30;99.90;;;;;;5028926;28;20290;-82
2022/10/28 05:14:30;;;;;;;30.07;14.77;;;14.30;99.90;;;;;;5040761;28;20221;-80
2022/10/28 05:16:57;;;;;;;24.93;13.03;;;14.30;99.90;;;;;;5049191;28;20325;-82
2022/10/28 05:19:24;;;;;;;25.47;13.07;;;14.30;99.90;;;;;;5047449;28;20584;-79
2022/10/28 05:21:50;;;;;;;28.70;13.80;;;14.30;99.90;;;;;;5046535;28;20228;-81
2022/10/28 05:24:17;;;;;;;26.40;13.83;;;14.30;99.90;;;;;;5047731;28;20237;-81
2022/10/28 05:26:44;;;;;;;31.37;13.70;;;14.30;99.90;;;;;;5030466;28;20217;-81
2022/10/28 05:29:11;;;;;;;22.33;12.67;;;14.30;99.90;;;;;;5042323;28;20219;-82
2022/10/28 05:31:37;;;;;;;24.00;12.67;;;14.20;99.90;;;;;;5029215;28;20256;-81
2022/10/28 05:34:04;;;;;;;23.57;12.50;;;14.20;99.90;;;;;;5046796;28;20278;-81
2022/10/28 05:36:31;;;;;;;23.20;12.10;;;14.20;99.90;;;;;;5046841;28;20574;-79
2022/10/28 05:38:58;;;;;;;25.73;14.23;;;14.20;99.90;;;;;;5050193;28;20304;-81
2022/10/28 05:41:24;;;;;;;26.27;12.73;;;14.20;99.90;;;;;;5041368;28;20233;-81
2022/10/28 05:43:51;;;;;;;22.33;12.07;;;14.20;99.90;;;;;;5056192;28;20665;-81
2022/10/28 05:46:18;;;;;;;26.67;13.80;;;14.20;99.90;;;;;;5038063;28;20717;-81
2022/10/28 05:48:45;;;;;;;26.90;13.27;;;14.20;99.90;;;;;;5050259;28;20238;-81
2022/10/28 05:51:12;;;;;;;25.10;11.97;;;14.20;99.90;;;;;;5057040;28;20243;-81
2022/10/28 05:53:40;;;;;;;28.47;13.00;;;14.30;99.90;;;;;;5059860;28;20663;-81
2022/10/28 05:56:07;;;;;;;23.73;12.27;;;14.20;99.90;;;;;;5068103;28;20629;-81
2022/10/28 05:58:34;;;;;;;24.10;12.83;;;14.30;99.90;;;;;;5067964;28;20208;-83
2022/10/28 06:01:05;;;;;;;21.43;12.27;;;14.20;99.90;;;;;;5062490;28;20217;-81
2022/10/28 06:03:42;;;;;;;26.23;12.03;;;14.20;99.90;;;;;;5057393;28;20292;-81
2022/10/28 06:06:09;;;;;;;27.80;12.57;;;14.20;99.90;;;;;;5059670;28;20287;-82
2022/10/28 06:08:35;;;;;;;28.33;14.17;;;14.20;99.90;;;;;;5057258;28;20201;-82
2022/10/28 06:11:02;;;;;;;18.90;11.40;;;14.20;99.90;;;;;;5059906;28;20265;-82
2022/10/28 06:13:31;;;;;;;20.60;11.73;;;14.20;99.90;;;;;;5045268;28;20200;-82
2022/10/28 06:15:58;;;;;;;26.67;12.67;;;14.20;99.90;;;;;;5059615;28;20257;-81
2022/10/28 06:18:25;;;;;;;20.30;12.77;;;14.20;99.90;;;;;;5058034;28;20408;-79
2022/10/28 06:20:57;;;;;;;21.73;11.13;;;14.20;99.90;;;;;;5043502;28;20213;-81
2022/10/28 06:23:27;;;;;;;20.87;12.37;;;14.20;99.90;;;;;;5040374;28;20237;-82
2022/10/28 06:26:03;;;;;;;23.13;11.73;;;14.20;99.90;;;;;;5054882;28;20306;-79
2022/10/28 06:28:32;;;;;;;22.67;11.80;;;14.10;99.90;;;;;;5028280;28;20201;-81
2022/10/28 06:31:07;;;;;;;26.77;13.30;;;14.20;99.90;;;;;;5044499;28;20197;-81
2022/10/28 06:33:35;;;;;;;21.80;10.60;;;14.20;99.90;;;;;;5030486;28;20193;-80
2022/10/28 06:36:05;;;;;;;26.43;12.63;;;14.20;99.90;;;;;;5043231;28;20222;-79
2022/10/28 06:38:33;;;;;;;24.33;11.90;;;14.20;99.90;;;;;;5053359;28;20213;-80
2022/10/28 06:40:59;;;;;;;23.23;11.97;;;14.20;99.90;;;;;;5031370;28;20213;-80
2022/10/28 06:43:26;;;;;;;29.37;11.67;;;14.20;99.90;;;;;;5036217;28;20225;-81
2022/10/28 06:45:55;;;;;;;21.67;11.93;;;14.20;99.90;;;;;;5034933;28;20205;-78
2022/10/28 06:48:23;;;;;;;21.57;10.97;;;14.20;99.90;;;;;;5047816;28;20243;-77
2022/10/28 06:50:54;;;;;;;25.13;11.07;;;14.30;99.90;;;;;;5048427;28;20284;-79
2022/10/28 06:53:21;;;;;;;25.57;11.43;;;14.20;99.90;;;;;;5037964;28;20288;-78
2022/10/28 06:55:53;;;;;;;21.40;10.80;;;14.30;99.90;;;;;;5048269;28;20238;-80
2022/10/28 06:58:20;;;;;;;19.80;11.13;;;14.40;99.90;;;;;;5050137;28;20327;-80
2022/10/28 07:00:47;;;;;;;24.20;11.07;;;14.40;99.90;;;;;;5049493;28;20214;-79
2022/10/28 07:03:14;;;;;;;23.00;11.07;;;14.40;99.90;;;;;;5052465;28;20264;-79
2022/10/28 07:05:41;;;;;;;19.70;10.60;;;14.40;99.90;;;;;;5048891;28;20588;-81
2022/10/28 07:08:10;;;;;;;22.57;10.87;;;14.50;99.90;;;;;;5027953;28;20206;-79
2022/10/28 07:10:37;;;;;;;23.43;10.30;;;14.50;99.90;;;;;;5053617;28;20605;-80
2022/10/28 07:13:04;;;;;;;20.37;10.77;;;14.60;99.90;;;;;;5034191;28;20291;-79
2022/10/28 07:15:33;;;;;;;20.17;10.63;;;14.60;99.90;;;;;;5019795;28;20252;-80
2022/10/28 07:18:02;;;;;;;20.60;10.90;;;14.70;99.90;;;;;;5043553;28;20210;-80
2022/10/28 07:20:31;;;;;;;22.07;10.40;;;14.70;99.90;;;;;;5052101;28;20246;-80
2022/10/28 07:23:00;;;;;;;17.40;9.00;;;14.80;99.90;;;;;;5053176;28;20622;-81
2022/10/28 07:25:32;;;;;;;20.13;9.60;;;14.90;99.90;;;;;;5051801;28;20267;-79
2022/10/28 07:27:59;;;;;;;17.07;9.30;;;14.90;99.90;;;;;;5044252;28;20213;-81
2022/10/28 07:30:27;;;;;;;20.97;9.10;;;15.00;99.90;;;;;;5051492;28;20296;-79
2022/10/28 07:32:54;;;;;;;18.13;9.43;;;15.00;99.90;;;;;;5051731;28;20205;-82
2022/10/28 07:35:21;;;;;;;17.93;9.67;;;15.10;99.90;;;;;;5050750;28;20251;-80
2022/10/28 07:37:48;;;;;;;18.80;10.47;;;15.20;99.90;;;;;;5049788;28;20700;-78
2022/10/28 07:40:15;;;;;;;19.93;8.90;;;15.30;99.90;;;;;;5055455;28;20311;-79
2022/10/28 07:42:42;;;;;;;18.90;9.50;;;15.30;99.90;;;;;;5048038;28;20605;-79
2022/10/28 07:45:09;;;;;;;19.50;8.73;;;15.30;99.90;;;;;;5029626;28;20252;-79
2022/10/28 07:47:37;;;;;;;24.57;8.87;;;15.40;99.90;;;;;;5049219;28;20305;-80
2022/10/28 07:50:07;;;;;;;19.77;8.67;;;15.50;99.90;;;;;;5046882;28;20240;-80
2022/10/28 07:52:35;;;;;;;16.40;9.35;;;15.50;99.90;;;;;;5047031;28;20206;-80
2022/10/28 07:55:05;;;;;;;15.13;8.20;;;15.60;99.90;;;;;;5043721;28;20194;-79
2022/10/28 07:57:34;;;;;;;21.80;9.65;;;15.60;99.90;;;;;;5049517;28;20273;-79
2022/10/28 08:00:04;;;;;;;21.63;8.85;;;15.70;99.90;;;;;;5054897;28;20239;-79
2022/10/28 08:02:31;;;;;;;20.55;7.75;;;15.80;99.90;;;;;;5051911;28;20308;-80
2022/10/28 08:05:00;;;;;;;18.87;7.80;;;15.80;99.90;;;;;;5054072;28;20213;-80
2022/10/28 08:07:27;;;;;;;20.33;8.80;;;15.90;99.90;;;;;;5046836;28;20242;-80
2022/10/28 08:09:54;;;;;;;18.25;8.10;;;15.80;99.90;;;;;;5053900;28;20205;-77
2022/10/28 08:12:21;;;;;;;15.80;7.57;;;15.90;99.90;;;;;;5043874;28;20636;-80
2022/10/28 08:14:49;;;;;;;23.08;9.27;;;16.00;99.90;;;;;;5057464;28;20232;-80
2022/10/28 08:17:16;;;;;;;19.52;9.05;;;16.10;99.90;;;;;;5053816;28;20368;-79
2022/10/28 08:19:45;;;;;;;16.05;7.88;;;16.10;99.90;;;;;;5030803;28;20313;-80
2022/10/28 08:22:12;;;;;;;19.65;8.73;;;16.20;99.90;;;;;;5047168;28;20285;-80
2022/10/28 08:24:39;;;;;;;15.13;7.70;;;16.30;99.90;;;;;;5035526;28;20193;-80
2022/10/28 08:27:06;;;;;;;16.15;8.52;;;16.40;99.90;;;;;;5036483;28;20215;-80
2022/10/28 08:29:33;;;;;;;18.15;6.93;;;16.50;99.90;;;;;;5054584;28;20244;-80
2022/10/28 08:32:00;;;;;;;17.40;7.65;;;16.60;99.90;;;;;;5033885;28;20690;-79
2022/10/28 08:34:29;;;;;;;17.77;7.53;;;16.70;99.90;;;;;;5040191;28;20747;-81
2022/10/28 08:36:57;;;;;;;18.38;7.28;;;16.90;99.90;;;;;;5042806;28;20206;-79
2022/10/28 08:39:24;;;;;;;17.17;6.13;;;16.80;99.90;;;;;;5033515;28;21018;-81
2022/10/28 08:41:51;;;;;;;13.60;6.88;;;17.10;99.90;;;;;;5060663;28;20209;-80
2022/10/28 08:44:52;;;;;;;17.55;7.15;;;17.30;99.90;;;;;;5064108;28;20251;-82
2022/10/28 08:48:07;;;;;;;13.75;6.60;;;17.40;99.90;;;;;;5055027;28;20591;-81
2022/10/28 08:50:48;;;;;;;16.60;6.88;;;17.60;99.90;;;;;;5048374;28;20221;-80
2022/10/28 08:53:23;;;;;;;18.52;7.47;;;17.80;99.90;;;;;;5050151;28;20292;-80
2022/10/28 08:55:52;;;;;;;15.93;6.35;;;17.90;99.90;;;;;;5045351;28;20205;-82
2022/10/28 08:58:33;;;;;;;14.77;6.03;;;18.00;99.90;;;;;;5046623;28;20560;-80
2022/10/28 09:01:00;;;;;;;15.50;6.63;;;18.20;99.90;;;;;;5034825;28;20208;-80
2022/10/28 09:03:37;;;;;;;12.52;5.88;;;18.30;99.90;;;;;;5049981;28;20228;-81
2022/10/28 09:06:07;;;;;;;17.27;6.53;;;18.50;99.90;;;;;;5049613;28;20216;-80
2022/10/28 09:08:46;;;;;;;17.85;5.93;;;18.60;99.90;;;;;;5046647;28;20197;-81
2022/10/28 09:11:37;;;;;;;14.60;5.72;;;18.80;99.90;;;;;;5053204;28;20286;-82
2022/10/28 09:14:27;;;;;;;15.85;6.03;;;18.90;99.90;;;;;;5033423;28;20256;-80
2022/10/28 09:17:01;;;;;;;14.13;5.75;;;19.10;99.90;;;;;;5040494;28;20224;-79
2022/10/28 09:19:36;;;;;;;16.05;6.05;;;19.20;99.90;;;;;;5051887;28;20213;-79
2022/10/28 09:22:20;;;;;;;13.82;5.60;;;19.30;99.90;;;;;;5031501;28;20220;-81
2022/10/28 09:25:10;;;;;;;15.82;6.32;;;19.50;99.90;;;;;;5051090;28;20220;-81
2022/10/28 09:28:04;;;;;;;13.48;6.00;;;19.50;99.90;;;;;;5026959;28;20193;-80
2022/10/28 09:30:32;;;;;;;12.55;5.57;;;19.60;99.90;;;;;;5059937;28;20636;-83
2022/10/28 09:33:18;;;;;;;11.30;5.55;;;19.60;99.90;;;;;;5033192;28;20214;-80
2022/10/28 09:35:47;;;;;;;15.32;5.45;;;19.80;99.90;;;;;;5044989;28;20236;-80
2022/10/28 09:38:30;;;;;;;11.98;5.18;;;19.90;99.90;;;;;;5032559;28;20224;-80
2022/10/28 09:41:09;;;;;;;14.30;6.03;;;20.00;99.90;;;;;;5028269;28;20308;-79
2022/10/28 09:43:51;;;;;;;15.88;5.63;;;20.10;99.90;;;;;;5030125;28;20705;-82
2022/10/28 09:46:20;;;;;;;16.20;5.93;;;20.10;99.90;;;;;;5048977;28;20197;-81
2022/10/28 09:48:54;;;;;;;11.25;5.82;;;20.20;99.90;;;;;;5044933;28;20213;-80
2022/10/28 09:51:26;;;;;;;16.13;6.32;;;20.20;99.90;;;;;;5032779;28;20713;-80
2022/10/28 09:53:57;;;;;;;16.88;5.85;;;20.30;99.90;;;;;;5047025;28;20267;-79
2022/10/28 09:56:25;;;;;;;12.65;5.93;;;20.40;99.90;;;;;;5030980;28;20193;-80
2022/10/28 09:58:57;;;;;;;12.43;5.40;;;20.50;99.90;;;;;;5046563;28;20248;-81
2022/10/28 10:01:25;;;;;;;11.73;5.10;;;20.60;99.90;;;;;;5041982;28;20201;-80
2022/10/28 10:03:53;;;;;;;13.13;5.32;;;20.60;99.90;;;;;;5030027;28;20232;-79
2022/10/28 10:06:32;;;;;;;16.55;5.88;;;20.70;99.90;;;;;;5047638;28;20258;-80
2022/10/28 10:08:59;;;;;;;10.38;4.90;;;20.80;99.90;;;;;;5053606;28;20256;-79
2022/10/28 10:11:37;;;;;;;13.43;5.43;;;20.80;99.90;;;;;;5045560;28;20479;-81
2022/10/28 10:14:11;;;;;;;13.02;5.00;;;20.90;99.90;;;;;;5043682;28;20611;-82
2022/10/28 10:16:50;;;;;;;11.80;5.13;;;21.00;99.90;;;;;;5019149;28;20986;-79
2022/10/28 10:19:17;;;;;;;12.32;4.80;;;21.10;99.90;;;;;;5050770;28;20252;-81
2022/10/28 10:21:45;;;;;;;19.92;5.72;;;21.20;99.90;;;;;;5041804;28;20209;-80
2022/10/28 10:24:35;;;;;;;12.43;5.53;;;21.20;99.90;;;;;;5050502;28;20727;-79
2022/10/28 10:27:16;;;;;;;14.95;5.22;;;21.30;99.90;;;;;;5030006;28;20210;-82
2022/10/28 10:29:44;;;;;;;13.30;5.63;;;21.30;99.90;;;;;;5045029;28;20280;-82
2022/10/28 10:32:32;;;;;;;14.05;5.15;;;21.40;99.90;;;;;;5053397;28;20205;-82
2022/10/28 10:35:17;;;;;;;15.77;5.30;;;21.50;99.90;;;;;;5034307;28;20225;-80
2022/10/28 10:37:46;;;;;;;14.35;5.70;;;21.50;99.90;;;;;;5046901;28;20201;-80
2022/10/28 10:40:58;;;;;;;14.80;5.40;;;21.50;99.90;;;;;;5051477;28;20208;-81
2022/10/28 10:43:38;;;;;;;15.80;5.28;;;21.50;99.90;;;;;;4952808;28;20291;-79
2022/10/28 10:46:15;;;;;;;12.93;5.32;;;21.60;99.90;;;;;;4971950;28;20253;-81
2022/10/28 10:48:42;;;;;;;17.20;5.68;;;21.70;99.90;;;;;;5013425;28;20236;-80
2022/10/28 10:51:24;;;;;;;13.32;5.03;;;21.70;99.90;;;;;;5047453;28;20289;-81
2022/10/28 10:53:55;;;;;;;12.60;4.93;;;21.70;99.90;;;;;;5048354;28;20252;-81
2022/10/28 10:56:40;;;;;;;12.93;5.30;;;21.70;99.90;;;;;;5031448;28;20219;-80
2022/10/28 10:59:22;;;;;;;14.07;5.40;;;21.80;99.90;;;;;;5051742;28;20285;-81
2022/10/28 11:01:49;;;;;;;8.90;4.45;;;21.90;99.90;;;;;;5034532;28;20210;-81
2022/10/28 11:04:20;;;;;;;16.38;5.88;;;21.90;99.90;;;;;;5059438;28;20232;-81
2022/10/28 11:06:52;;;;;;;11.15;4.60;;;21.90;99.90;;;;;;5055794;28;20231;-81
2022/10/28 11:09:32;;;;;;;12.35;5.47;;;21.90;99.90;;;;;;5054865;28;20201;-83
2022/10/28 11:11:59;;;;;;;15.65;5.20;;;22.00;99.90;;;;;;5049263;28;20213;-81
2022/10/28 11:14:31;;;;;;;19.63;5.90;;;22.10;99.90;;;;;;5058825;28;20324;-83
2022/10/28 11:17:02;;;;;;;12.77;5.07;;;22.10;99.90;;;;;;5053928;28;20629;-82
2022/10/28 11:19:32;;;;;;;15.27;5.07;;;22.20;99.90;;;;;;5042469;28;20220;-82
2022/10/28 11:22:07;;;;;;;11.65;5.53;;;22.20;99.90;;;;;;5059188;28;20221;-81
2022/10/28 11:24:51;;;;;;;17.10;5.45;;;22.20;99.90;;;;;;5031527;28;20252;-82
2022/10/28 11:27:33;;;;;;;12.23;5.22;;;22.30;99.90;;;;;;5043182;28;20205;-81
2022/10/28 11:30:00;;;;;;;16.08;5.47;;;22.30;99.90;;;;;;5054540;28;20240;-82
2022/10/28 11:32:54;;;;;;;17.55;5.65;;;22.20;99.90;;;;;;5046057;28;20193;-82
2022/10/28 11:35:56;;;;;;;13.75;5.47;;;22.30;99.90;;;;;;5052783;28;20591;-81
2022/10/28 11:38:38;;;;;;;17.00;6.30;;;22.20;99.90;;;;;;5037566;28;20240;-81
2022/10/28 11:41:34;;;;;;;14.48;5.38;;;22.20;99.90;;;;;;5043647;28;20744;-79
2022/10/28 11:44:11;;;;;;;14.50;5.63;;;22.30;99.90;;;;;;5008706;28;20239;-82
2022/10/28 11:46:42;;;;;;;14.18;5.70;;;22.20;99.90;;;;;;5051072;28;20594;-81
2022/10/28 11:49:36;;;;;;;11.90;5.38;;;22.20;99.90;;;;;;5036174;28;20229;-80
2022/10/28 11:52:47;;;;;;;13.63;5.45;;;22.20;99.90;;;;;;5034265;28;20622;-80
2022/10/28 11:55:45;;;;;;;14.88;5.85;;;22.30;99.90;;;;;;5045982;28;20729;-79
2022/10/28 11:58:45;;;;;;;13.00;4.70;;;22.40;99.90;;;;;;5051278;28;20243;-80
2022/10/28 12:01:33;;;;;;;13.95;5.13;;;22.40;99.90;;;;;;5011821;28;20206;-81
2022/10/28 12:04:49;;;;;;;16.27;5.32;;;22.40;99.90;;;;;;5050306;28;20351;-80
2022/10/28 12:07:28;;;;;;;15.30;5.43;;;22.50;99.90;;;;;;4986542;28;20275;-80
2022/10/28 12:10:03;;;;;;;14.82;5.25;;;22.50;99.90;;;;;;5051364;28;20207;-82
2022/10/28 12:12:36;;;;;;;12.90;5.38;;;22.50;99.90;;;;;;5050396;28;20245;-81
2022/10/28 12:15:10;;;;;;;12.45;5.30;;;22.50;99.90;;;;;;5051861;28;20332;-80
2022/10/28 12:17:51;;;;;;;11.18;5.15;;;22.60;99.90;;;;;;5046112;28;20208;-79
2022/10/28 12:20:34;;;;;;;14.02;6.10;;;22.60;99.90;;;;;;5048987;28;20689;-82
2022/10/28 12:23:05;;;;;;;20.40;5.80;;;22.70;99.90;;;;;;5052119;28;20217;-82
2022/10/28 12:25:35;;;;;;;13.43;5.20;;;22.70;99.90;;;;;;5050297;28;20217;-80
2022/10/28 12:28:13;;;;;;;14.30;4.85;;;22.70;99.90;;;;;;5051301;28;20211;-81
2022/10/28 12:30:41;;;;;;;13.13;5.32;;;22.70;99.90;;;;;;5056867;28;20217;-82
2022/10/28 12:33:25;;;;;;;9.63;4.53;;;22.70;99.90;;;;;;5054785;28;20207;-81
2022/10/28 12:36:07;;;;;;;14.77;5.15;;;22.70;99.90;;;;;;5044735;28;20247;-81
2022/10/28 12:38:59;;;;;;;12.63;4.95;;;22.80;99.90;;;;;;5043888;28;20205;-81
2022/10/28 12:41:51;;;;;;;13.35;5.28;;;22.70;99.90;;;;;;5046968;28;20811;-81
2022/10/28 12:44:23;;;;;;;12.65;4.47;;;22.70;99.90;;;;;;5055913;28;20232;-81
2022/10/28 12:47:10;;;;;;;15.00;5.40;;;22.80;99.90;;;;;;5046873;28;20201;-81
2022/10/28 12:49:58;;;;;;;12.48;5.50;;;22.70;99.90;;;;;;5054010;28;20228;-82
2022/10/28 12:52:54;;;;;;;10.85;4.53;;;22.70;99.90;;;;;;5049537;28;20209;-80
2022/10/28 12:55:40;;;;;;;12.77;5.15;;;22.70;99.90;;;;;;5039402;28;20331;-81
2022/10/28 12:58:14;;;;;;;14.05;5.40;;;22.70;99.90;;;;;;5054505;28;20214;-83
2022/10/28 13:00:45;;;;;;;12.82;5.13;;;22.60;99.90;;;;;;5037827;28;20232;-80
2022/10/28 13:03:14;;;;;;;13.85;4.97;;;22.60;99.90;;;;;;5051380;28;20229;-81